sensor_id;sensor_type;location;lat;lon;timestamp;P1;durP1;ratioP1;P2;durP2;ratioP2
49962;SDS011;36180;57.678;11.910;2022-10-03T00:00:09;5.40;;;3.05;;
49962;SDS011;36180;57.678;11.910;2022-10-03T00:05:40;3.42;;;2.60;;
49962;SDS011;36180;57.678;11.910;2022-10-03T00:08:17;3.53;;;2.60;;
49962;SDS011;36180;57.678;11.910;2022-10-03T00:10:59;2.75;;;2.50;;
49962;SDS011;36180;57.678;11.910;2022-10-03T00:13:34;4.85;;;2.50;;
49962;SDS011;36180;57.678;11.910;2022-10-03T00:16:08;3.65;;;2.30;;
49962;SDS011;36180;57.678;11.910;2022-10-03T00:18:50;3.45;;;2.75;;
49962;SDS011;36180;57.678;11.910;2022-10-03T00:21:25;3.75;;;2.75;;
49962;SDS011;36180;57.678;11.910;2022-10-03T00:24:03;5.25;;;2.70;;
49962;SDS011;36180;57.678;11.910;2022-10-03T00:26:37;5.75;;;3.88;;
49962;SDS011;36180;57.678;11.910;2022-10-03T00:29:13;3.88;;;3.58;;
49962;SDS011;36180;57.678;11.910;2022-10-03T00:31:50;5.15;;;3.55;;
49962;SDS011;36180;57.678;11.910;2022-10-03T00:34:24;3.65;;;3.25;;
49962;SDS011;36180;57.678;11.910;2022-10-03T00:37:03;4.05;;;3.08;;
49962;SDS011;36180;57.678;11.910;2022-10-03T00:39:42;4.93;;;2.95;;
49962;SDS011;36180;57.678;11.910;2022-10-03T00:48:19;4.13;;;2.58;;
49962;SDS011;36180;57.678;11.910;2022-10-03T00:51:04;2.10;;;1.90;;
49962;SDS011;36180;57.678;11.910;2022-10-03T00:53:57;2.33;;;2.13;;
49962;SDS011;36180;57.678;11.910;2022-10-03T00:56:40;2.30;;;1.85;;
49962;SDS011;36180;57.678;11.910;2022-10-03T00:59:24;2.65;;;2.20;;
49962;SDS011;36180;57.678;11.910;2022-10-03T01:02:03;3.75;;;2.95;;
49962;SDS011;36180;57.678;11.910;2022-10-03T01:04:47;2.70;;;2.50;;
49962;SDS011;36180;57.678;11.910;2022-10-03T01:07:25;3.95;;;3.00;;
49962;SDS011;36180;57.678;11.910;2022-10-03T01:10:17;4.47;;;2.58;;
49962;SDS011;36180;57.678;11.910;2022-10-03T01:12:59;5.85;;;2.08;;
49962;SDS011;36180;57.678;11.910;2022-10-03T01:15:45;2.38;;;1.73;;
49962;SDS011;36180;57.678;11.910;2022-10-03T01:18:20;2.38;;;1.48;;
49962;SDS011;36180;57.678;11.910;2022-10-03T01:20:56;2.38;;;1.83;;
49962;SDS011;36180;57.678;11.910;2022-10-03T01:23:44;2.45;;;2.00;;
49962;SDS011;36180;57.678;11.910;2022-10-03T01:26:39;3.15;;;2.25;;
49962;SDS011;36180;57.678;11.910;2022-10-03T01:29:27;2.15;;;1.50;;
49962;SDS011;36180;57.678;11.910;2022-10-03T01:32:20;1.90;;;1.67;;
49962;SDS011;36180;57.678;11.910;2022-10-03T01:34:51;2.47;;;1.65;;
49962;SDS011;36180;57.678;11.910;2022-10-03T01:37:25;2.65;;;1.90;;
49962;SDS011;36180;57.678;11.910;2022-10-03T01:39:56;1.73;;;1.50;;
49962;SDS011;36180;57.678;11.910;2022-10-03T01:42:32;4.03;;;1.58;;
49962;SDS011;36180;57.678;11.910;2022-10-03T01:45:12;1.65;;;1.50;;
49962;SDS011;36180;57.678;11.910;2022-10-03T01:47:48;1.58;;;1.13;;
49962;SDS011;36180;57.678;11.910;2022-10-03T01:50:20;1.50;;;1.40;;
49962;SDS011;36180;57.678;11.910;2022-10-03T01:52:52;3.22;;;1.40;;
49962;SDS011;36180;57.678;11.910;2022-10-03T01:55:24;4.30;;;1.40;;
49962;SDS011;36180;57.678;11.910;2022-10-03T01:58:00;3.05;;;1.88;;
49962;SDS011;36180;57.678;11.910;2022-10-03T02:00:33;1.53;;;1.43;;
49962;SDS011;36180;57.678;11.910;2022-10-03T02:03:05;5.30;;;3.90;;
49962;SDS011;36180;57.678;11.910;2022-10-03T02:05:40;8.98;;;4.82;;
49962;SDS011;36180;57.678;11.910;2022-10-03T02:08:18;4.72;;;4.32;;
49962;SDS011;36180;57.678;11.910;2022-10-03T02:10:52;8.73;;;4.55;;
49962;SDS011;36180;57.678;11.910;2022-10-03T02:13:24;4.63;;;3.75;;
49962;SDS011;36180;57.678;11.910;2022-10-03T02:16:00;3.75;;;3.25;;
49962;SDS011;36180;57.678;11.910;2022-10-03T02:18:36;5.20;;;3.05;;
49962;SDS011;36180;57.678;11.910;2022-10-03T02:21:10;3.60;;;2.58;;
49962;SDS011;36180;57.678;11.910;2022-10-03T02:23:40;3.20;;;2.90;;
49962;SDS011;36180;57.678;11.910;2022-10-03T02:26:19;4.47;;;2.67;;
49962;SDS011;36180;57.678;11.910;2022-10-03T02:29:09;3.55;;;3.10;;
49962;SDS011;36180;57.678;11.910;2022-10-03T02:38:25;5.20;;;2.80;;
49962;SDS011;36180;57.678;11.910;2022-10-03T02:41:12;3.13;;;2.60;;
49962;SDS011;36180;57.678;11.910;2022-10-03T02:43:58;3.85;;;2.60;;
49962;SDS011;36180;57.678;11.910;2022-10-03T02:49:53;3.92;;;2.38;;
49962;SDS011;36180;57.678;11.910;2022-10-03T02:52:59;3.17;;;2.55;;
49962;SDS011;36180;57.678;11.910;2022-10-03T02:56:00;5.93;;;3.00;;
49962;SDS011;36180;57.678;11.910;2022-10-03T02:59:12;3.28;;;2.97;;
49962;SDS011;36180;57.678;11.910;2022-10-03T03:02:02;5.10;;;3.75;;
49962;SDS011;36180;57.678;11.910;2022-10-03T03:05:03;5.43;;;3.55;;
49962;SDS011;36180;57.678;11.910;2022-10-03T03:08:10;4.20;;;3.80;;
49962;SDS011;36180;57.678;11.910;2022-10-03T03:14:04;3.90;;;3.50;;
49962;SDS011;36180;57.678;11.910;2022-10-03T03:17:08;5.88;;;3.60;;
49962;SDS011;36180;57.678;11.910;2022-10-03T03:19:44;4.03;;;3.60;;
49962;SDS011;36180;57.678;11.910;2022-10-03T03:27:51;4.88;;;4.40;;
49962;SDS011;36180;57.678;11.910;2022-10-03T03:30:28;7.45;;;4.30;;
49962;SDS011;36180;57.678;11.910;2022-10-03T03:33:04;4.90;;;4.40;;
49962;SDS011;36180;57.678;11.910;2022-10-03T03:35:38;5.43;;;4.10;;
49962;SDS011;36180;57.678;11.910;2022-10-03T03:38:19;5.70;;;4.20;;
49962;SDS011;36180;57.678;11.910;2022-10-03T03:41:02;5.07;;;3.78;;
49962;SDS011;36180;57.678;11.910;2022-10-03T03:43:44;6.90;;;4.20;;
49962;SDS011;36180;57.678;11.910;2022-10-03T03:46:26;4.07;;;3.67;;
49962;SDS011;36180;57.678;11.910;2022-10-03T03:52:00;4.90;;;4.50;;
49962;SDS011;36180;57.678;11.910;2022-10-03T03:54:47;5.68;;;5.00;;
49962;SDS011;36180;57.678;11.910;2022-10-03T03:57:44;5.35;;;4.07;;
49962;SDS011;36180;57.678;11.910;2022-10-03T04:00:21;5.38;;;4.15;;
49962;SDS011;36180;57.678;11.910;2022-10-03T04:06:01;8.27;;;4.20;;
49962;SDS011;36180;57.678;11.910;2022-10-03T04:08:43;6.35;;;3.90;;
49962;SDS011;36180;57.678;11.910;2022-10-03T04:11:26;6.10;;;4.07;;
49962;SDS011;36180;57.678;11.910;2022-10-03T04:14:10;8.43;;;4.82;;
49962;SDS011;36180;57.678;11.910;2022-10-03T04:16:53;8.48;;;4.53;;
49962;SDS011;36180;57.678;11.910;2022-10-03T04:19:48;8.45;;;3.88;;
49962;SDS011;36180;57.678;11.910;2022-10-03T04:22:27;6.90;;;4.63;;
49962;SDS011;36180;57.678;11.910;2022-10-03T04:25:25;6.35;;;3.75;;
49962;SDS011;36180;57.678;11.910;2022-10-03T04:31:02;8.55;;;4.28;;
49962;SDS011;36180;57.678;11.910;2022-10-03T04:33:38;5.47;;;4.25;;
49962;SDS011;36180;57.678;11.910;2022-10-03T04:39:24;5.28;;;3.92;;
49962;SDS011;36180;57.678;11.910;2022-10-03T04:41:57;9.40;;;3.80;;
49962;SDS011;36180;57.678;11.910;2022-10-03T04:44:30;5.82;;;3.63;;
49962;SDS011;36180;57.678;11.910;2022-10-03T04:47:04;5.43;;;3.53;;
49962;SDS011;36180;57.678;11.910;2022-10-03T04:49:41;4.35;;;3.55;;
49962;SDS011;36180;57.678;11.910;2022-10-03T04:52:14;5.20;;;3.63;;
49962;SDS011;36180;57.678;11.910;2022-10-03T04:54:46;3.47;;;2.92;;
49962;SDS011;36180;57.678;11.910;2022-10-03T04:57:20;5.63;;;3.10;;
49962;SDS011;36180;57.678;11.910;2022-10-03T04:59:53;8.10;;;3.10;;
49962;SDS011;36180;57.678;11.910;2022-10-03T05:02:35;4.82;;;3.03;;
49962;SDS011;36180;57.678;11.910;2022-10-03T05:05:18;5.30;;;2.63;;
49962;SDS011;36180;57.678;11.910;2022-10-03T05:07:53;4.55;;;2.67;;
49962;SDS011;36180;57.678;11.910;2022-10-03T05:10:29;4.70;;;3.13;;
49962;SDS011;36180;57.678;11.910;2022-10-03T05:13:11;6.10;;;2.90;;
49962;SDS011;36180;57.678;11.910;2022-10-03T05:15:47;4.32;;;2.80;;
49962;SDS011;36180;57.678;11.910;2022-10-03T05:18:22;7.88;;;2.60;;
49962;SDS011;36180;57.678;11.910;2022-10-03T05:20:59;9.35;;;2.40;;
49962;SDS011;36180;57.678;11.910;2022-10-03T05:23:33;8.25;;;2.50;;
49962;SDS011;36180;57.678;11.910;2022-10-03T05:26:10;7.18;;;2.67;;
49962;SDS011;36180;57.678;11.910;2022-10-03T05:28:43;5.35;;;2.45;;
49962;SDS011;36180;57.678;11.910;2022-10-03T05:31:21;8.50;;;2.55;;
49962;SDS011;36180;57.678;11.910;2022-10-03T05:33:57;4.90;;;2.17;;
49962;SDS011;36180;57.678;11.910;2022-10-03T05:36:29;6.03;;;2.15;;
49962;SDS011;36180;57.678;11.910;2022-10-03T05:39:14;5.88;;;2.05;;
49962;SDS011;36180;57.678;11.910;2022-10-03T05:41:50;9.88;;;2.33;;
49962;SDS011;36180;57.678;11.910;2022-10-03T05:44:20;5.57;;;2.30;;
49962;SDS011;36180;57.678;11.910;2022-10-03T05:46:55;5.90;;;2.42;;
49962;SDS011;36180;57.678;11.910;2022-10-03T05:49:38;4.65;;;2.05;;
49962;SDS011;36180;57.678;11.910;2022-10-03T05:52:28;7.05;;;2.20;;
49962;SDS011;36180;57.678;11.910;2022-10-03T05:55:12;8.18;;;2.42;;
49962;SDS011;36180;57.678;11.910;2022-10-03T05:58:13;4.20;;;2.10;;
49962;SDS011;36180;57.678;11.910;2022-10-03T06:04:11;5.30;;;2.40;;
49962;SDS011;36180;57.678;11.910;2022-10-03T06:06:52;5.85;;;3.17;;
49962;SDS011;36180;57.678;11.910;2022-10-03T06:12:41;7.15;;;2.80;;
49962;SDS011;36180;57.678;11.910;2022-10-03T06:15:18;6.43;;;3.17;;
49962;SDS011;36180;57.678;11.910;2022-10-03T06:18:13;6.93;;;3.00;;
49962;SDS011;36180;57.678;11.910;2022-10-03T06:24:17;7.57;;;2.75;;
49962;SDS011;36180;57.678;11.910;2022-10-03T06:27:17;6.65;;;2.42;;
49962;SDS011;36180;57.678;11.910;2022-10-03T06:30:03;12.57;;;3.47;;
49962;SDS011;36180;57.678;11.910;2022-10-03T06:32:49;19.55;;;4.22;;
49962;SDS011;36180;57.678;11.910;2022-10-03T06:38:40;20.63;;;4.05;;
49962;SDS011;36180;57.678;11.910;2022-10-03T06:41:43;18.65;;;3.05;;
49962;SDS011;36180;57.678;11.910;2022-10-03T06:44:45;10.77;;;2.42;;
49962;SDS011;36180;57.678;11.910;2022-10-03T06:47:30;9.52;;;2.40;;
49962;SDS011;36180;57.678;11.910;2022-10-03T06:50:13;9.13;;;2.55;;
49962;SDS011;36180;57.678;11.910;2022-10-03T06:53:19;12.23;;;2.10;;
49962;SDS011;36180;57.678;11.910;2022-10-03T06:59:13;9.02;;;2.20;;
49962;SDS011;36180;57.678;11.910;2022-10-03T07:07:46;10.27;;;2.95;;
49962;SDS011;36180;57.678;11.910;2022-10-03T07:10:30;9.05;;;3.25;;
49962;SDS011;36180;57.678;11.910;2022-10-03T07:16:07;7.25;;;2.25;;
49962;SDS011;36180;57.678;11.910;2022-10-03T07:18:48;8.52;;;2.42;;
49962;SDS011;36180;57.678;11.910;2022-10-03T07:21:51;10.13;;;2.15;;
49962;SDS011;36180;57.678;11.910;2022-10-03T07:24:39;14.57;;;2.50;;
49962;SDS011;36180;57.678;11.910;2022-10-03T07:27:35;8.82;;;1.90;;
49962;SDS011;36180;57.678;11.910;2022-10-03T07:30:18;8.38;;;2.08;;
49962;SDS011;36180;57.678;11.910;2022-10-03T07:36:10;13.40;;;1.90;;
49962;SDS011;36180;57.678;11.910;2022-10-03T07:42:21;8.23;;;1.60;;
49962;SDS011;36180;57.678;11.910;2022-10-03T07:45:07;12.07;;;1.95;;
49962;SDS011;36180;57.678;11.910;2022-10-03T07:51:14;6.72;;;1.58;;
49962;SDS011;36180;57.678;11.910;2022-10-03T07:59:42;7.13;;;1.70;;
49962;SDS011;36180;57.678;11.910;2022-10-03T08:02:30;10.65;;;1.50;;
49962;SDS011;36180;57.678;11.910;2022-10-03T08:05:19;10.55;;;1.63;;
49962;SDS011;36180;57.678;11.910;2022-10-03T08:07:59;10.52;;;1.73;;
49962;SDS011;36180;57.678;11.910;2022-10-03T08:10:53;9.63;;;1.60;;
49962;SDS011;36180;57.678;11.910;2022-10-03T08:13:49;6.13;;;1.42;;
49962;SDS011;36180;57.678;11.910;2022-10-03T08:16:33;11.23;;;1.50;;
49962;SDS011;36180;57.678;11.910;2022-10-03T08:19:32;9.80;;;1.48;;
49962;SDS011;36180;57.678;11.910;2022-10-03T08:22:08;7.88;;;1.05;;
49962;SDS011;36180;57.678;11.910;2022-10-03T08:24:52;11.15;;;1.80;;
49962;SDS011;36180;57.678;11.910;2022-10-03T08:34:14;5.18;;;1.13;;
49962;SDS011;36180;57.678;11.910;2022-10-03T08:37:07;5.72;;;0.80;;
49962;SDS011;36180;57.678;11.910;2022-10-03T08:43:19;3.53;;;0.98;;
49962;SDS011;36180;57.678;11.910;2022-10-03T08:48:40;3.47;;;0.80;;
49962;SDS011;36180;57.678;11.910;2022-10-03T08:57:23;5.20;;;1.20;;
49962;SDS011;36180;57.678;11.910;2022-10-03T09:00:14;2.92;;;0.75;;
49962;SDS011;36180;57.678;11.910;2022-10-03T09:06:16;4.50;;;0.90;;
49962;SDS011;36180;57.678;11.910;2022-10-03T09:09:02;3.50;;;0.75;;
49962;SDS011;36180;57.678;11.910;2022-10-03T09:11:45;5.63;;;1.00;;
49962;SDS011;36180;57.678;11.910;2022-10-03T09:14:35;3.72;;;0.88;;
49962;SDS011;36180;57.678;11.910;2022-10-03T09:17:14;3.30;;;0.90;;
49962;SDS011;36180;57.678;11.910;2022-10-03T09:20:26;2.10;;;0.70;;
49962;SDS011;36180;57.678;11.910;2022-10-03T09:29:21;2.35;;;0.93;;
49962;SDS011;36180;57.678;11.910;2022-10-03T09:32:21;4.32;;;0.80;;
49962;SDS011;36180;57.678;11.910;2022-10-03T09:35:22;6.97;;;0.90;;
49962;SDS011;36180;57.678;11.910;2022-10-03T09:38:14;5.57;;;0.95;;
49962;SDS011;36180;57.678;11.910;2022-10-03T09:41:25;7.03;;;1.10;;
49962;SDS011;36180;57.678;11.910;2022-10-03T09:44:16;5.78;;;1.13;;
49962;SDS011;36180;57.678;11.910;2022-10-03T09:53:14;3.78;;;0.60;;
49962;SDS011;36180;57.678;11.910;2022-10-03T10:02:16;8.80;;;1.35;;
49962;SDS011;36180;57.678;11.910;2022-10-03T10:05:13;9.00;;;0.90;;
49962;SDS011;36180;57.678;11.910;2022-10-03T10:08:24;4.45;;;0.65;;
49962;SDS011;36180;57.678;11.910;2022-10-03T10:11:03;4.65;;;1.02;;
49962;SDS011;36180;57.678;11.910;2022-10-03T10:16:44;4.90;;;0.88;;
49962;SDS011;36180;57.678;11.910;2022-10-03T10:19:51;5.72;;;0.90;;
49962;SDS011;36180;57.678;11.910;2022-10-03T10:22:41;6.45;;;1.17;;
49962;SDS011;36180;57.678;11.910;2022-10-03T10:25:22;4.97;;;0.80;;
49962;SDS011;36180;57.678;11.910;2022-10-03T10:31:07;2.70;;;0.80;;
49962;SDS011;36180;57.678;11.910;2022-10-03T10:34:09;4.75;;;1.52;;
49962;SDS011;36180;57.678;11.910;2022-10-03T10:40:18;3.72;;;0.80;;
49962;SDS011;36180;57.678;11.910;2022-10-03T10:43:29;6.72;;;0.90;;
49962;SDS011;36180;57.678;11.910;2022-10-03T10:46:17;2.72;;;0.80;;
49962;SDS011;36180;57.678;11.910;2022-10-03T10:52:47;4.50;;;0.75;;
49962;SDS011;36180;57.678;11.910;2022-10-03T10:55:49;6.10;;;0.93;;
49962;SDS011;36180;57.678;11.910;2022-10-03T11:02:00;6.07;;;0.90;;
49962;SDS011;36180;57.678;11.910;2022-10-03T11:11:08;3.63;;;1.08;;
49962;SDS011;36180;57.678;11.910;2022-10-03T11:13:53;3.58;;;0.70;;
49962;SDS011;36180;57.678;11.910;2022-10-03T11:19:59;5.63;;;0.80;;
49962;SDS011;36180;57.678;11.910;2022-10-03T11:23:07;4.97;;;1.13;;
49962;SDS011;36180;57.678;11.910;2022-10-03T11:26:07;5.35;;;0.80;;
49962;SDS011;36180;57.678;11.910;2022-10-03T11:32:07;4.18;;;0.85;;
49962;SDS011;36180;57.678;11.910;2022-10-03T11:37:52;5.43;;;0.80;;
49962;SDS011;36180;57.678;11.910;2022-10-03T11:40:26;4.72;;;1.00;;
49962;SDS011;36180;57.678;11.910;2022-10-03T11:43:05;2.33;;;0.70;;
49962;SDS011;36180;57.678;11.910;2022-10-03T11:45:53;4.75;;;1.08;;
49962;SDS011;36180;57.678;11.910;2022-10-03T11:48:25;6.97;;;1.15;;
49962;SDS011;36180;57.678;11.910;2022-10-03T11:51:03;4.32;;;1.05;;
49962;SDS011;36180;57.678;11.910;2022-10-03T11:53:36;7.65;;;0.98;;
49962;SDS011;36180;57.678;11.910;2022-10-03T11:56:11;4.28;;;1.13;;
49962;SDS011;36180;57.678;11.910;2022-10-03T11:58:54;6.20;;;1.08;;
49962;SDS011;36180;57.678;11.910;2022-10-03T12:01:35;4.95;;;1.05;;
49962;SDS011;36180;57.678;11.910;2022-10-03T12:04:10;5.22;;;1.00;;
49962;SDS011;36180;57.678;11.910;2022-10-03T12:06:52;2.42;;;0.80;;
49962;SDS011;36180;57.678;11.910;2022-10-03T12:09:54;3.42;;;0.70;;
49962;SDS011;36180;57.678;11.910;2022-10-03T12:12:26;7.00;;;1.48;;
49962;SDS011;36180;57.678;11.910;2022-10-03T12:15:02;8.10;;;1.25;;
49962;SDS011;36180;57.678;11.910;2022-10-03T12:17:39;4.28;;;0.90;;
49962;SDS011;36180;57.678;11.910;2022-10-03T12:20:17;5.70;;;1.15;;
49962;SDS011;36180;57.678;11.910;2022-10-03T12:22:47;3.63;;;0.80;;
49962;SDS011;36180;57.678;11.910;2022-10-03T12:25:21;5.80;;;0.90;;
49962;SDS011;36180;57.678;11.910;2022-10-03T12:27:51;3.75;;;1.08;;
49962;SDS011;36180;57.678;11.910;2022-10-03T12:30:23;7.70;;;1.45;;
49962;SDS011;36180;57.678;11.910;2022-10-03T12:32:58;6.57;;;1.40;;
49962;SDS011;36180;57.678;11.910;2022-10-03T12:35:41;3.15;;;0.80;;
49962;SDS011;36180;57.678;11.910;2022-10-03T12:38:15;2.80;;;0.98;;
49962;SDS011;36180;57.678;11.910;2022-10-03T12:40:52;4.03;;;0.95;;
49962;SDS011;36180;57.678;11.910;2022-10-03T12:43:30;3.03;;;0.70;;
49962;SDS011;36180;57.678;11.910;2022-10-03T12:46:05;3.92;;;0.88;;
49962;SDS011;36180;57.678;11.910;2022-10-03T12:48:40;4.25;;;1.13;;
49962;SDS011;36180;57.678;11.910;2022-10-03T12:51:18;5.70;;;0.98;;
49962;SDS011;36180;57.678;11.910;2022-10-03T12:53:51;9.60;;;1.20;;
49962;SDS011;36180;57.678;11.910;2022-10-03T12:56:25;2.65;;;0.65;;
49962;SDS011;36180;57.678;11.910;2022-10-03T12:59:01;4.88;;;0.88;;
49962;SDS011;36180;57.678;11.910;2022-10-03T13:01:41;3.88;;;0.63;;
49962;SDS011;36180;57.678;11.910;2022-10-03T13:04:30;5.32;;;0.85;;
49962;SDS011;36180;57.678;11.910;2022-10-03T13:07:07;4.90;;;0.95;;
49962;SDS011;36180;57.678;11.910;2022-10-03T13:09:50;3.33;;;0.80;;
49962;SDS011;36180;57.678;11.910;2022-10-03T13:12:26;5.85;;;0.70;;
49962;SDS011;36180;57.678;11.910;2022-10-03T13:18:15;2.88;;;0.90;;
49962;SDS011;36180;57.678;11.910;2022-10-03T13:20:59;3.28;;;0.90;;
49962;SDS011;36180;57.678;11.910;2022-10-03T13:23:37;5.57;;;0.93;;
49962;SDS011;36180;57.678;11.910;2022-10-03T13:26:10;6.15;;;0.88;;
49962;SDS011;36180;57.678;11.910;2022-10-03T13:28:46;6.47;;;1.02;;
49962;SDS011;36180;57.678;11.910;2022-10-03T13:31:27;3.40;;;0.75;;
49962;SDS011;36180;57.678;11.910;2022-10-03T13:33:57;8.05;;;1.45;;
49962;SDS011;36180;57.678;11.910;2022-10-03T13:36:27;4.65;;;0.98;;
49962;SDS011;36180;57.678;11.910;2022-10-03T13:38:58;7.38;;;1.02;;
49962;SDS011;36180;57.678;11.910;2022-10-03T13:41:44;4.85;;;0.80;;
49962;SDS011;36180;57.678;11.910;2022-10-03T13:44:31;4.55;;;1.05;;
49962;SDS011;36180;57.678;11.910;2022-10-03T13:47:01;4.07;;;1.02;;
49962;SDS011;36180;57.678;11.910;2022-10-03T13:49:37;6.55;;;1.00;;
49962;SDS011;36180;57.678;11.910;2022-10-03T13:52:14;4.32;;;1.20;;
49962;SDS011;36180;57.678;11.910;2022-10-03T13:54:51;10.20;;;1.20;;
49962;SDS011;36180;57.678;11.910;2022-10-03T13:57:27;4.97;;;0.90;;
49962;SDS011;36180;57.678;11.910;2022-10-03T13:59:58;4.20;;;0.93;;
49962;SDS011;36180;57.678;11.910;2022-10-03T14:02:38;4.75;;;1.80;;
49962;SDS011;36180;57.678;11.910;2022-10-03T14:05:24;2.90;;;0.77;;
49962;SDS011;36180;57.678;11.910;2022-10-03T14:08:40;7.00;;;0.98;;
49962;SDS011;36180;57.678;11.910;2022-10-03T14:11:18;3.65;;;0.80;;
49962;SDS011;36180;57.678;11.910;2022-10-03T14:13:59;3.53;;;0.90;;
49962;SDS011;36180;57.678;11.910;2022-10-03T14:16:50;5.50;;;1.00;;
49962;SDS011;36180;57.678;11.910;2022-10-03T14:19:24;5.95;;;0.90;;
49962;SDS011;36180;57.678;11.910;2022-10-03T14:22:10;4.20;;;0.77;;
49962;SDS011;36180;57.678;11.910;2022-10-03T14:25:03;11.18;;;1.17;;
49962;SDS011;36180;57.678;11.910;2022-10-03T14:27:43;9.43;;;1.17;;
49962;SDS011;36180;57.678;11.910;2022-10-03T14:30:15;3.40;;;1.10;;
49962;SDS011;36180;57.678;11.910;2022-10-03T14:32:46;6.63;;;1.00;;
49962;SDS011;36180;57.678;11.910;2022-10-03T14:35:39;6.40;;;0.90;;
49962;SDS011;36180;57.678;11.910;2022-10-03T14:38:13;6.57;;;1.20;;
49962;SDS011;36180;57.678;11.910;2022-10-03T14:41:17;2.83;;;0.82;;
49962;SDS011;36180;57.678;11.910;2022-10-03T14:43:48;9.35;;;1.23;;
49962;SDS011;36180;57.678;11.910;2022-10-03T14:46:18;4.43;;;1.20;;
49962;SDS011;36180;57.678;11.910;2022-10-03T14:48:46;6.40;;;0.93;;
49962;SDS011;36180;57.678;11.910;2022-10-03T14:51:17;6.57;;;1.15;;
49962;SDS011;36180;57.678;11.910;2022-10-03T14:53:46;7.97;;;0.90;;
49962;SDS011;36180;57.678;11.910;2022-10-03T14:56:21;3.05;;;0.85;;
49962;SDS011;36180;57.678;11.910;2022-10-03T14:58:50;6.60;;;1.05;;
49962;SDS011;36180;57.678;11.910;2022-10-03T15:01:20;5.53;;;1.17;;
49962;SDS011;36180;57.678;11.910;2022-10-03T15:03:52;5.30;;;0.90;;
49962;SDS011;36180;57.678;11.910;2022-10-03T15:09:20;8.20;;;1.58;;
49962;SDS011;36180;57.678;11.910;2022-10-03T15:11:53;5.53;;;1.08;;
49962;SDS011;36180;57.678;11.910;2022-10-03T15:14:24;7.78;;;1.02;;
49962;SDS011;36180;57.678;11.910;2022-10-03T15:16:54;5.38;;;1.00;;
49962;SDS011;36180;57.678;11.910;2022-10-03T15:19:23;4.75;;;1.00;;
49962;SDS011;36180;57.678;11.910;2022-10-03T15:21:57;7.00;;;1.10;;
49962;SDS011;36180;57.678;11.910;2022-10-03T15:24:30;3.40;;;0.73;;
49962;SDS011;36180;57.678;11.910;2022-10-03T15:27:02;4.15;;;0.80;;
49962;SDS011;36180;57.678;11.910;2022-10-03T15:29:32;7.53;;;0.93;;
49962;SDS011;36180;57.678;11.910;2022-10-03T15:31:59;4.20;;;0.93;;
49962;SDS011;36180;57.678;11.910;2022-10-03T15:34:29;5.18;;;0.90;;
49962;SDS011;36180;57.678;11.910;2022-10-03T15:36:58;4.00;;;0.80;;
49962;SDS011;36180;57.678;11.910;2022-10-03T15:39:32;4.72;;;0.80;;
49962;SDS011;36180;57.678;11.910;2022-10-03T15:42:02;6.15;;;1.23;;
49962;SDS011;36180;57.678;11.910;2022-10-03T15:44:39;5.65;;;0.90;;
49962;SDS011;36180;57.678;11.910;2022-10-03T15:47:17;5.97;;;1.17;;
49962;SDS011;36180;57.678;11.910;2022-10-03T15:49:49;5.40;;;0.88;;
49962;SDS011;36180;57.678;11.910;2022-10-03T15:52:20;5.13;;;1.10;;
49962;SDS011;36180;57.678;11.910;2022-10-03T15:54:51;3.50;;;1.00;;
49962;SDS011;36180;57.678;11.910;2022-10-03T15:57:23;5.32;;;0.90;;
49962;SDS011;36180;57.678;11.910;2022-10-03T15:59:56;2.83;;;0.73;;
49962;SDS011;36180;57.678;11.910;2022-10-03T16:02:34;7.10;;;0.93;;
49962;SDS011;36180;57.678;11.910;2022-10-03T16:05:04;4.53;;;0.70;;
49962;SDS011;36180;57.678;11.910;2022-10-03T16:07:35;6.03;;;0.77;;
49962;SDS011;36180;57.678;11.910;2022-10-03T16:10:11;5.78;;;0.70;;
49962;SDS011;36180;57.678;11.910;2022-10-03T16:12:58;6.20;;;1.00;;
49962;SDS011;36180;57.678;11.910;2022-10-03T16:15:31;4.65;;;0.88;;
49962;SDS011;36180;57.678;11.910;2022-10-03T16:18:33;6.28;;;1.63;;
49962;SDS011;36180;57.678;11.910;2022-10-03T16:21:08;4.38;;;0.90;;
49962;SDS011;36180;57.678;11.910;2022-10-03T16:23:38;5.25;;;0.80;;
49962;SDS011;36180;57.678;11.910;2022-10-03T16:26:11;3.45;;;0.80;;
49962;SDS011;36180;57.678;11.910;2022-10-03T16:28:42;2.97;;;0.85;;
49962;SDS011;36180;57.678;11.910;2022-10-03T16:31:16;3.60;;;0.90;;
49962;SDS011;36180;57.678;11.910;2022-10-03T16:33:46;3.50;;;0.93;;
49962;SDS011;36180;57.678;11.910;2022-10-03T16:36:16;4.63;;;0.80;;
49962;SDS011;36180;57.678;11.910;2022-10-03T16:38:45;5.38;;;0.73;;
49962;SDS011;36180;57.678;11.910;2022-10-03T16:41:19;6.68;;;1.02;;
49962;SDS011;36180;57.678;11.910;2022-10-03T16:43:54;4.20;;;0.82;;
49962;SDS011;36180;57.678;11.910;2022-10-03T16:46:24;4.10;;;0.98;;
49962;SDS011;36180;57.678;11.910;2022-10-03T16:48:53;5.50;;;0.90;;
49962;SDS011;36180;57.678;11.910;2022-10-03T16:51:40;2.58;;;0.80;;
49962;SDS011;36180;57.678;11.910;2022-10-03T16:54:10;3.15;;;1.10;;
49962;SDS011;36180;57.678;11.910;2022-10-03T16:56:38;3.92;;;0.90;;
49962;SDS011;36180;57.678;11.910;2022-10-03T16:59:11;5.03;;;0.93;;
49962;SDS011;36180;57.678;11.910;2022-10-03T17:01:41;3.70;;;0.90;;
49962;SDS011;36180;57.678;11.910;2022-10-03T17:04:13;8.35;;;1.13;;
49962;SDS011;36180;57.678;11.910;2022-10-03T17:06:46;4.10;;;0.98;;
49962;SDS011;36180;57.678;11.910;2022-10-03T17:09:16;4.25;;;1.05;;
49962;SDS011;36180;57.678;11.910;2022-10-03T17:11:50;3.63;;;0.85;;
49962;SDS011;36180;57.678;11.910;2022-10-03T17:14:20;4.22;;;1.10;;
49962;SDS011;36180;57.678;11.910;2022-10-03T17:16:49;11.43;;;1.35;;
49962;SDS011;36180;57.678;11.910;2022-10-03T17:19:25;6.50;;;1.20;;
49962;SDS011;36180;57.678;11.910;2022-10-03T17:22:00;13.27;;;1.40;;
49962;SDS011;36180;57.678;11.910;2022-10-03T17:24:40;5.43;;;1.15;;
49962;SDS011;36180;57.678;11.910;2022-10-03T17:27:12;8.40;;;1.25;;
49962;SDS011;36180;57.678;11.910;2022-10-03T17:29:49;10.68;;;2.05;;
49962;SDS011;36180;57.678;11.910;2022-10-03T17:32:22;8.82;;;1.45;;
49962;SDS011;36180;57.678;11.910;2022-10-03T17:34:54;10.00;;;1.80;;
49962;SDS011;36180;57.678;11.910;2022-10-03T17:37:37;8.48;;;1.30;;
49962;SDS011;36180;57.678;11.910;2022-10-03T17:40:17;6.05;;;1.25;;
49962;SDS011;36180;57.678;11.910;2022-10-03T17:42:53;8.57;;;1.08;;
49962;SDS011;36180;57.678;11.910;2022-10-03T17:45:31;8.70;;;1.63;;
49962;SDS011;36180;57.678;11.910;2022-10-03T17:48:04;7.72;;;1.35;;
49962;SDS011;36180;57.678;11.910;2022-10-03T17:50:37;10.60;;;1.27;;
49962;SDS011;36180;57.678;11.910;2022-10-03T17:53:09;3.90;;;1.15;;
49962;SDS011;36180;57.678;11.910;2022-10-03T17:55:43;5.60;;;1.30;;
49962;SDS011;36180;57.678;11.910;2022-10-03T17:58:11;8.55;;;1.55;;
49962;SDS011;36180;57.678;11.910;2022-10-03T18:00:54;6.22;;;1.25;;
49962;SDS011;36180;57.678;11.910;2022-10-03T18:03:27;6.45;;;1.50;;
49962;SDS011;36180;57.678;11.910;2022-10-03T18:05:58;8.27;;;1.40;;
49962;SDS011;36180;57.678;11.910;2022-10-03T18:08:48;6.05;;;1.30;;
49962;SDS011;36180;57.678;11.910;2022-10-03T18:11:17;3.53;;;1.23;;
49962;SDS011;36180;57.678;11.910;2022-10-03T18:13:48;11.32;;;1.40;;
49962;SDS011;36180;57.678;11.910;2022-10-03T18:16:21;8.68;;;1.55;;
49962;SDS011;36180;57.678;11.910;2022-10-03T18:19:01;6.38;;;1.35;;
49962;SDS011;36180;57.678;11.910;2022-10-03T18:21:55;2.72;;;1.10;;
49962;SDS011;36180;57.678;11.910;2022-10-03T18:24:34;4.75;;;1.13;;
49962;SDS011;36180;57.678;11.910;2022-10-03T18:27:07;5.30;;;1.20;;
49962;SDS011;36180;57.678;11.910;2022-10-03T18:29:46;3.60;;;1.05;;